Time;durP1;ratioP1;P1;durP2;ratioP2;P2;SDS_P1;SDS_P2;PMS_P1;PMS_P2;Temp;Humidity;BMP_temperature;BMP_pressure;BME280_temperature;BME280_humidity;BME280_pressure;Samples;Min_cycle;Max_cycle;Signal;HPM_P1;HPM_P2
2023/05/26 00:00:49;;;;;;;0.30;0.30;;;7.70;99.90;;;;;;5037721;28;20044;-72
2023/05/26 00:03:16;;;;;;;0.52;0.52;;;7.90;99.90;;;;;;5070717;28;20044;-73
2023/05/26 00:05:43;;;;;;;0.50;0.50;;;8.00;99.90;;;;;;5054071;28;20079;-73
2023/05/26 00:08:09;;;;;;;0.52;0.52;;;7.80;99.90;;;;;;5053303;28;20086;-74
2023/05/26 00:10:35;;;;;;;;;;;7.80;99.90;;;;;;5070583;28;20056;-73
2023/05/26 00:13:01;;;;;;;0.50;0.50;;;7.80;99.90;;;;;;5069627;28;19916;-74
2023/05/26 00:15:26;;;;;;;2.25;1.67;;;7.80;99.90;;;;;;5050873;28;20133;-74
2023/05/26 00:17:52;;;;;;;0.30;0.30;;;7.70;99.90;;;;;;5069832;28;20152;-73
2023/05/26 00:20:18;;;;;;;0.60;0.60;;;7.60;99.90;;;;;;5070446;28;20040;-73
2023/05/26 00:22:44;;;;;;;0.47;0.47;;;7.60;99.90;;;;;;5069997;28;20480;-74
2023/05/26 00:25:10;;;;;;;0.50;0.50;;;7.50;99.90;;;;;;5052872;28;20481;-74
2023/05/26 00:27:36;;;;;;;0.50;0.50;;;7.50;99.90;;;;;;5070139;28;20383;-74
2023/05/26 00:30:02;;;;;;;0.50;0.50;;;7.60;99.90;;;;;;5035961;28;20070;-74
2023/05/26 00:32:28;;;;;;;0.50;0.50;;;7.50;99.90;;;;;;5070243;28;20135;-74
2023/05/26 00:34:53;;;;;;;0.57;0.57;;;7.50;99.90;;;;;;5068719;28;20139;-74
2023/05/26 00:37:19;;;;;;;0.50;0.50;;;7.40;99.90;;;;;;5053086;28;20045;-74
2023/05/26 00:39:45;;;;;;;0.50;0.50;;;7.40;99.90;;;;;;5069758;28;20037;-74
2023/05/26 00:42:11;;;;;;;0.50;0.50;;;7.40;99.90;;;;;;5055773;28;20028;-74
2023/05/26 00:44:36;;;;;;;0.30;0.30;;;7.30;99.90;;;;;;5079826;28;20045;-73
2023/05/26 00:47:02;;;;;;;0.40;0.40;;;7.90;99.90;;;;;;5069139;28;20040;-74
2023/05/26 00:49:28;;;;;;;0.60;0.60;;;7.40;99.90;;;;;;5054666;28;20037;-74
2023/05/26 00:51:55;;;;;;;0.85;0.57;;;7.40;99.90;;;;;;5069993;28;20079;-73
2023/05/26 00:54:21;;;;;;;;;;;7.30;99.90;;;;;;5076558;28;20086;-74
2023/05/26 00:56:47;;;;;;;0.40;0.40;;;7.30;99.90;;;;;;5069681;28;20273;-74
2023/05/26 00:59:14;;;;;;;0.70;0.63;;;7.20;99.90;;;;;;5035534;28;20043;-74
2023/05/26 01:01:40;;;;;;;0.32;0.32;;;7.50;99.90;;;;;;5069289;28;20036;-74
2023/05/26 01:04:06;;;;;;;0.60;0.60;;;7.10;99.90;;;;;;5069158;28;20063;-74
2023/05/26 01:06:31;;;;;;;;;;;7.10;99.90;;;;;;5069604;28;20044;-74
2023/05/26 01:08:58;;;;;;;0.47;0.47;;;7.10;99.90;;;;;;5070577;28;19923;-74
2023/05/26 01:11:40;;;;;;;0.50;0.50;;;7.10;99.90;;;;;;5053186;28;20044;-75
2023/05/26 01:14:25;;;;;;;0.43;0.43;;;7.10;99.90;;;;;;5069381;28;20041;-75
2023/05/26 01:16:59;;;;;;;0.95;0.60;;;7.10;99.90;;;;;;5069387;28;20421;-74
2023/05/26 01:19:46;;;;;;;1.75;0.82;;;7.20;99.90;;;;;;5069573;28;20036;-74
2023/05/26 01:22:47;;;;;;;0.52;0.52;;;7.20;99.90;;;;;;5067694;28;20046;-73
2023/05/26 01:25:33;;;;;;;0.50;0.50;;;7.20;99.90;;;;;;5069036;28;20120;-73
2023/05/26 01:28:09;;;;;;;0.47;0.47;;;7.30;99.90;;;;;;5069145;28;20290;-73
2023/05/26 01:30:35;;;;;;;0.50;0.50;;;7.40;99.90;;;;;;5069456;28;20045;-72
2023/05/26 01:33:01;;;;;;;0.55;0.55;;;7.30;99.90;;;;;;5069056;28;20428;-73
2023/05/26 01:35:27;;;;;;;;;;;7.40;99.90;;;;;;5070118;28;20043;-74
2023/05/26 01:37:53;;;;;;;0.30;0.30;;;7.60;99.90;;;;;;5068365;28;20429;-73
2023/05/26 01:40:19;;;;;;;0.50;0.50;;;7.40;99.90;;;;;;5073927;28;20097;-73
2023/05/26 01:43:10;;;;;;;0.40;0.40;;;7.60;99.90;;;;;;5080795;28;20482;-73
2023/05/26 01:45:54;;;;;;;0.50;0.50;;;7.50;99.90;;;;;;5054636;28;20071;-74
2023/05/26 01:48:21;;;;;;;0.40;0.40;;;7.60;99.90;;;;;;5054254;28;20109;-74
2023/05/26 01:50:58;;;;;;;0.50;0.50;;;7.50;99.90;;;;;;5051984;28;20076;-75
2023/05/26 01:53:29;;;;;;;0.40;0.40;;;7.50;99.90;;;;;;5068720;28;20127;-73
2023/05/26 01:55:59;;;;;;;0.50;0.50;;;7.50;99.90;;;;;;5068668;28;20051;-73
2023/05/26 01:58:26;;;;;;;0.40;0.40;;;7.40;99.90;;;;;;5068817;28;20056;-73
2023/05/26 02:00:52;;;;;;;0.50;0.50;;;7.50;99.90;;;;;;5068716;28;20052;-73
2023/05/26 02:03:18;;;;;;;0.60;0.60;;;7.30;99.90;;;;;;5068317;28;20041;-73
2023/05/26 02:05:45;;;;;;;0.30;0.30;;;7.50;99.90;;;;;;5051878;28;20062;-73
2023/05/26 02:08:11;;;;;;;0.40;0.40;;;7.40;99.90;;;;;;5068474;28;20504;-73
2023/05/26 02:10:37;;;;;;;0.60;0.60;;;7.30;99.90;;;;;;5068635;28;20037;-73
2023/05/26 02:13:03;;;;;;;0.50;0.50;;;7.30;99.90;;;;;;5068473;28;20086;-73
2023/05/26 02:15:29;;;;;;;0.50;0.50;;;7.30;99.90;;;;;;5052015;28;20078;-73
2023/05/26 02:17:57;;;;;;;0.40;0.40;;;7.60;99.90;;;;;;5068398;28;20071;-73
2023/05/26 02:20:23;;;;;;;0.50;0.50;;;7.40;99.90;;;;;;5052158;28;20043;-73
2023/05/26 02:22:49;;;;;;;0.70;0.70;;;7.40;99.90;;;;;;5069174;28;20044;-73
2023/05/26 02:25:15;;;;;;;0.50;0.50;;;7.40;99.90;;;;;;5063032;28;20045;-73
2023/05/26 02:27:41;;;;;;;;;;;7.50;99.90;;;;;;5049581;28;20134;-73
2023/05/26 02:30:07;;;;;;;0.70;0.70;;;7.30;99.90;;;;;;5048705;28;19982;-73
2023/05/26 02:32:34;;;;;;;;;;;7.30;99.90;;;;;;5032319;28;20044;-74
2023/05/26 02:35:00;;;;;;;;;;;7.30;99.90;;;;;;5066868;28;19920;-74
2023/05/26 02:37:26;;;;;;;0.50;0.50;;;7.50;99.90;;;;;;5068041;28;20407;-75
2023/05/26 02:39:52;;;;;;;;;;;7.30;99.90;;;;;;5093288;28;20047;-73
2023/05/26 02:42:18;;;;;;;0.68;0.68;;;7.30;99.90;;;;;;5079055;28;19920;-73
2023/05/26 02:44:44;;;;;;;0.50;0.50;;;7.40;99.90;;;;;;5082372;28;20433;-73
2023/05/26 02:47:10;;;;;;;0.60;0.60;;;7.30;99.90;;;;;;5072201;28;20044;-74
2023/05/26 02:49:35;;;;;;;0.50;0.50;;;7.30;99.90;;;;;;5072330;28;20474;-74
2023/05/26 02:52:01;;;;;;;0.50;0.50;;;7.30;99.90;;;;;;5072190;28;20524;-73
2023/05/26 02:54:27;;;;;;;0.60;0.60;;;7.30;99.90;;;;;;5056157;28;20048;-74
2023/05/26 02:56:53;;;;;;;0.60;0.60;;;7.40;99.90;;;;;;5072784;28;20043;-74
2023/05/26 02:59:18;;;;;;;0.63;0.63;;;7.20;99.90;;;;;;5071962;28;20044;-73
2023/05/26 03:01:44;;;;;;;0.57;0.57;;;7.40;99.90;;;;;;5072098;28;20044;-73
2023/05/26 03:04:10;;;;;;;0.40;0.40;;;7.40;99.90;;;;;;5055181;28;20139;-73
2023/05/26 03:06:36;;;;;;;0.55;0.55;;;7.50;99.90;;;;;;5055275;28;20040;-74
2023/05/26 03:09:02;;;;;;;;;;;7.60;99.90;;;;;;5071688;28;20155;-73
2023/05/26 03:11:27;;;;;;;0.60;0.60;;;7.40;99.90;;;;;;5071297;28;20003;-73
2023/05/26 03:13:53;;;;;;;0.50;0.50;;;7.50;99.90;;;;;;5071261;28;20488;-74
2023/05/26 03:16:19;;;;;;;0.50;0.50;;;7.60;99.90;;;;;;5054609;28;20036;-73
2023/05/26 03:18:45;;;;;;;0.50;0.50;;;7.30;99.90;;;;;;5071112;28;20033;-73
2023/05/26 03:21:10;;;;;;;0.50;0.50;;;7.30;99.90;;;;;;5070755;28;20055;-73
2023/05/26 03:23:36;;;;;;;0.85;0.85;;;7.20;99.90;;;;;;5070443;28;20044;-73
2023/05/26 03:26:02;;;;;;;0.50;0.50;;;7.20;99.90;;;;;;5058466;28;20049;-73
2023/05/26 03:28:28;;;;;;;0.50;0.50;;;7.20;99.90;;;;;;5051016;28;20045;-73
2023/05/26 03:30:54;;;;;;;0.50;0.50;;;7.10;99.90;;;;;;5051054;28;20044;-73
2023/05/26 03:33:19;;;;;;;0.70;0.70;;;7.00;99.90;;;;;;5067453;28;20044;-73
2023/05/26 03:35:45;;;;;;;0.95;0.82;;;7.10;99.90;;;;;;5070935;28;20047;-73
2023/05/26 03:38:11;;;;;;;0.50;0.50;;;7.00;99.90;;;;;;5056026;28;20076;-73
2023/05/26 03:40:36;;;;;;;0.60;0.60;;;7.00;99.90;;;;;;5051596;28;20486;-73
2023/05/26 03:43:02;;;;;;;0.40;0.40;;;7.20;99.90;;;;;;5071392;28;20465;-73
2023/05/26 03:45:28;;;;;;;0.52;0.52;;;7.10;99.90;;;;;;5091798;28;20401;-73
2023/05/26 03:47:54;;;;;;;0.40;0.40;;;7.10;99.90;;;;;;5070684;28;20056;-73
2023/05/26 03:50:19;;;;;;;0.40;0.40;;;7.00;99.90;;;;;;5037035;28;20070;-73
2023/05/26 03:52:45;;;;;;;0.47;0.47;;;7.00;99.90;;;;;;5070630;28;20066;-74
2023/05/26 03:55:11;;;;;;;0.60;0.60;;;7.00;99.90;;;;;;5053682;28;20457;-74
2023/05/26 03:57:37;;;;;;;0.30;0.30;;;7.00;99.90;;;;;;5054165;28;20043;-75
2023/05/26 04:00:06;;;;;;;0.63;0.63;;;7.10;99.90;;;;;;5070705;28;20046;-74
2023/05/26 04:02:31;;;;;;;0.40;0.40;;;7.10;99.90;;;;;;5053930;28;20123;-75
2023/05/26 04:04:57;;;;;;;0.60;0.60;;;7.20;99.90;;;;;;5070431;28;20131;-74
2023/05/26 04:07:23;;;;;;;0.60;0.60;;;7.20;99.90;;;;;;5053150;28;20040;-75
2023/05/26 04:09:48;;;;;;;0.50;0.50;;;7.40;99.90;;;;;;5070106;28;20041;-74
2023/05/26 04:12:14;;;;;;;0.52;0.52;;;7.30;99.90;;;;;;5070186;28;20052;-74
2023/05/26 04:14:40;;;;;;;0.50;0.50;;;7.30;99.90;;;;;;5053382;28;20509;-74
2023/05/26 04:17:06;;;;;;;0.50;0.50;;;7.60;99.90;;;;;;5070174;28;20041;-74
2023/05/26 04:19:31;;;;;;;0.55;0.55;;;7.50;99.90;;;;;;5070041;28;20486;-74
2023/05/26 04:21:57;;;;;;;0.65;0.65;;;7.50;99.90;;;;;;5070110;28;20105;-74
2023/05/26 04:24:23;;;;;;;0.40;0.40;;;7.60;99.90;;;;;;5053147;28;20090;-74
2023/05/26 04:26:52;;;;;;;0.50;0.50;;;7.60;99.90;;;;;;5034749;28;20048;-74
2023/05/26 04:29:20;;;;;;;0.73;0.40;;;7.90;99.90;;;;;;5063846;28;20097;-75
2023/05/26 04:31:46;;;;;;;0.40;0.40;;;7.70;99.90;;;;;;5073267;28;20044;-74
2023/05/26 04:34:12;;;;;;;0.60;0.60;;;7.80;99.90;;;;;;5093911;28;20055;-74
2023/05/26 04:36:38;;;;;;;0.40;0.40;;;7.90;99.90;;;;;;5069474;28;20052;-74
2023/05/26 04:39:04;;;;;;;;;;;7.90;99.90;;;;;;5054051;28;20458;-75
2023/05/26 04:41:29;;;;;;;0.60;0.60;;;8.00;99.90;;;;;;5069334;28;19927;-75
2023/05/26 04:43:55;;;;;;;0.40;0.40;;;8.00;99.90;;;;;;5066848;28;20055;-74
2023/05/26 04:46:21;;;;;;;0.50;0.50;;;8.10;99.90;;;;;;5052862;28;20044;-74
2023/05/26 04:48:47;;;;;;;0.52;0.52;;;8.20;99.90;;;;;;5069348;28;20079;-74
2023/05/26 04:51:12;;;;;;;0.45;0.45;;;8.30;99.90;;;;;;5052233;28;20036;-74
2023/05/26 04:53:38;;;;;;;0.60;0.60;;;8.30;99.90;;;;;;5052591;28;20151;-74
2023/05/26 04:56:05;;;;;;;0.55;0.55;;;8.40;99.90;;;;;;5053072;28;20410;-74
2023/05/26 04:58:32;;;;;;;0.32;0.32;;;8.40;99.90;;;;;;5052548;28;20359;-74
2023/05/26 05:00:58;;;;;;;0.40;0.40;;;8.50;99.90;;;;;;5069380;28;20044;-74
2023/05/26 05:03:24;;;;;;;0.32;0.32;;;8.60;99.90;;;;;;5069231;28;20057;-75
2023/05/26 05:05:50;;;;;;;0.57;0.57;;;8.70;99.90;;;;;;5052682;28;20084;-75
2023/05/26 05:08:17;;;;;;;0.50;0.50;;;8.70;99.90;;;;;;5069007;28;20052;-75
2023/05/26 05:10:43;;;;;;;0.50;0.50;;;8.80;99.90;;;;;;5052836;28;20398;-74
2023/05/26 05:13:08;;;;;;;0.40;0.40;;;9.10;99.90;;;;;;5069169;28;20056;-74
2023/05/26 05:15:34;;;;;;;0.40;0.40;;;9.00;99.90;;;;;;5068672;28;20055;-74
2023/05/26 05:18:02;;;;;;;0.40;0.40;;;9.10;99.90;;;;;;5069631;28;20148;-75
2023/05/26 05:20:28;;;;;;;0.40;0.40;;;9.20;99.90;;;;;;5068557;28;20512;-73
2023/05/26 05:22:54;;;;;;;0.60;0.60;;;9.30;99.90;;;;;;5052099;28;20117;-74
2023/05/26 05:25:20;;;;;;;;;;;9.40;99.90;;;;;;5056222;28;20123;-74
2023/05/26 05:27:46;;;;;;;1.45;1.45;;;9.50;99.90;;;;;;5089041;28;20069;-74
2023/05/26 05:30:12;;;;;;;;;;;9.60;99.90;;;;;;5078286;28;20048;-74
2023/05/26 05:32:38;;;;;;;0.40;0.40;;;9.60;99.90;;;;;;5052024;28;19917;-74
2023/05/26 05:35:04;;;;;;;0.30;0.30;;;9.70;99.90;;;;;;5051818;28;20051;-74
2023/05/26 05:37:30;;;;;;;0.40;0.40;;;9.80;99.90;;;;;;5051225;28;20059;-74
2023/05/26 05:39:56;;;;;;;0.30;0.30;;;9.90;99.90;;;;;;5068506;28;20048;-75
2023/05/26 05:42:24;;;;;;;0.40;0.40;;;10.00;99.90;;;;;;5072850;28;20035;-75
2023/05/26 05:44:50;;;;;;;0.40;0.40;;;10.10;99.90;;;;;;5094606;28;20036;-74
2023/05/26 05:47:16;;;;;;;;;;;10.20;99.90;;;;;;5068316;28;20105;-75
2023/05/26 05:49:41;;;;;;;0.43;0.43;;;10.30;99.90;;;;;;5068273;28;19920;-75
2023/05/26 05:52:07;;;;;;;0.45;0.45;;;10.40;99.90;;;;;;5051597;28;20048;-75
2023/05/26 05:54:33;;;;;;;0.75;0.75;;;10.50;99.90;;;;;;5067833;28;20477;-75
2023/05/26 05:56:59;;;;;;;0.45;0.45;;;10.50;99.90;;;;;;5068715;28;20040;-75
2023/05/26 05:59:25;;;;;;;4.88;0.70;;;10.50;99.90;;;;;;5051153;28;20655;-75
2023/05/26 06:01:50;;;;;;;0.40;0.40;;;10.60;99.90;;;;;;5068365;28;20052;-74
2023/05/26 06:04:16;;;;;;;0.35;0.35;;;10.70;99.90;;;;;;5051422;28;20135;-75
2023/05/26 06:06:42;;;;;;;0.40;0.40;;;10.80;99.90;;;;;;5069503;28;20099;-75
2023/05/26 06:09:07;;;;;;;0.95;0.95;;;10.80;99.90;;;;;;5069293;28;20040;-75
2023/05/26 06:11:33;;;;;;;0.90;0.85;;;10.80;99.90;;;;;;5051849;28;20048;-75
2023/05/26 06:13:59;;;;;;;0.45;0.45;;;11.10;99.90;;;;;;5068851;28;20058;-75
2023/05/26 06:16:25;;;;;;;0.20;0.20;;;11.10;99.90;;;;;;5068855;28;20075;-75
2023/05/26 06:18:51;;;;;;;0.50;0.50;;;11.10;99.90;;;;;;5052371;28;20060;-75
2023/05/26 06:21:16;;;;;;;0.30;0.30;;;11.20;99.90;;;;;;5051804;28;20044;-75
2023/05/26 06:23:42;;;;;;;4.32;1.75;;;11.20;99.90;;;;;;5068474;28;20518;-75
2023/05/26 06:26:08;;;;;;;1.98;0.70;;;11.30;99.90;;;;;;5054725;28;20049;-75
2023/05/26 06:28:33;;;;;;;0.80;0.80;;;11.40;99.90;;;;;;5031077;28;20040;-75
2023/05/26 06:30:59;;;;;;;0.75;0.75;;;11.50;99.90;;;;;;5048507;28;20045;-74
2023/05/26 06:33:25;;;;;;;0.90;0.90;;;11.50;99.90;;;;;;5050658;28;20460;-74
2023/05/26 06:35:51;;;;;;;0.40;0.40;;;11.60;99.90;;;;;;5051799;28;20044;-74
2023/05/26 06:38:16;;;;;;;0.52;0.52;;;11.60;99.90;;;;;;5067670;28;20417;-74
2023/05/26 06:40:42;;;;;;;0.57;0.57;;;11.00;99.90;;;;;;5050897;28;20106;-75
2023/05/26 06:43:08;;;;;;;0.30;0.30;;;11.60;99.90;;;;;;5079025;28;20059;-74
2023/05/26 06:45:33;;;;;;;0.40;0.40;;;11.80;99.90;;;;;;5053843;28;20056;-76
2023/05/26 06:47:59;;;;;;;0.40;0.40;;;11.80;99.90;;;;;;5067529;28;20056;-75
2023/05/26 06:50:25;;;;;;;0.30;0.30;;;11.90;99.90;;;;;;5067675;28;20079;-75
2023/05/26 06:52:51;;;;;;;0.30;0.30;;;11.90;99.90;;;;;;5067920;28;20037;-75
2023/05/26 06:55:16;;;;;;;0.38;0.38;;;12.60;99.90;;;;;;5070098;28;20059;-75
2023/05/26 06:57:43;;;;;;;0.32;0.32;;;12.00;99.90;;;;;;5067616;28;20374;-75
2023/05/26 07:00:09;;;;;;;1.25;1.15;;;12.10;99.90;;;;;;5051841;28;20469;-75
2023/05/26 07:02:35;;;;;;;;;;;12.10;99.90;;;;;;5068113;28;20045;-74
2023/05/26 07:05:01;;;;;;;0.50;0.50;;;12.10;99.90;;;;;;5070735;28;19917;-75
2023/05/26 07:07:27;;;;;;;0.50;0.50;;;12.20;99.90;;;;;;5067604;28;20048;-75
2023/05/26 07:09:53;;;;;;;0.25;0.25;;;12.30;99.90;;;;;;5051441;28;20052;-75
2023/05/26 07:12:19;;;;;;;0.93;0.93;;;12.30;99.90;;;;;;5067569;28;20496;-75
2023/05/26 07:14:46;;;;;;;0.40;0.40;;;12.30;99.90;;;;;;5067831;28;20044;-74
2023/05/26 07:17:12;;;;;;;0.30;0.30;;;12.40;99.90;;;;;;5051212;28;20049;-75
2023/05/26 07:19:38;;;;;;;0.50;0.50;;;12.50;99.90;;;;;;5050471;28;20470;-75
2023/05/26 07:22:04;;;;;;;2.17;1.60;;;12.60;99.90;;;;;;5075054;28;20070;-75
2023/05/26 07:24:30;;;;;;;0.40;0.40;;;12.70;99.90;;;;;;5070790;28;20050;-75
2023/05/26 07:26:55;;;;;;;0.30;0.30;;;12.70;99.90;;;;;;5071023;28;20036;-75
2023/05/26 07:29:21;;;;;;;0.30;0.30;;;12.70;99.90;;;;;;5071347;28;20462;-75
2023/05/26 07:31:47;;;;;;;0.30;0.30;;;12.80;99.90;;;;;;5071543;28;20044;-75
2023/05/26 07:34:13;;;;;;;0.90;0.82;;;12.90;99.90;;;;;;5074947;28;20383;-75
2023/05/26 07:36:39;;;;;;;0.55;0.55;;;13.00;99.90;;;;;;5071774;28;20489;-74
2023/05/26 07:39:04;;;;;;;0.30;0.30;;;13.00;99.90;;;;;;5071325;28;20114;-75
2023/05/26 07:41:30;;;;;;;0.30;0.30;;;13.00;99.90;;;;;;5070675;28;20052;-75
2023/05/26 07:43:56;;;;;;;2.15;0.75;;;13.10;99.90;;;;;;5069234;28;20032;-75
2023/05/26 07:46:22;;;;;;;0.47;0.47;;;13.20;99.90;;;;;;5071161;28;20043;-75
2023/05/26 07:48:48;;;;;;;0.30;0.30;;;13.30;99.90;;;;;;5070490;28;20060;-75
2023/05/26 07:51:14;;;;;;;0.22;0.22;;;13.30;99.90;;;;;;5057565;28;20388;-75
2023/05/26 07:53:40;;;;;;;1.17;1.10;;;13.40;99.90;;;;;;5082186;28;20076;-75
2023/05/26 07:56:06;;;;;;;0.68;0.68;;;13.50;99.90;;;;;;5072428;28;20071;-75
2023/05/26 07:58:32;;;;;;;0.38;0.38;;;13.60;99.90;;;;;;5071456;28;20047;-75
2023/05/26 08:00:57;;;;;;;;;;;13.60;99.90;;;;;;5070682;28;20354;-75
2023/05/26 08:03:23;;;;;;;0.40;0.40;;;13.60;99.90;;;;;;5070301;28;19920;-75
2023/05/26 08:05:49;;;;;;;0.30;0.30;;;13.60;99.90;;;;;;5070453;28;20040;-75
2023/05/26 08:08:15;;;;;;;2.78;0.60;;;13.40;99.90;;;;;;5070934;28;20127;-74
2023/05/26 08:10:40;;;;;;;0.50;0.50;;;13.40;99.90;;;;;;5069793;28;20064;-75
2023/05/26 08:13:07;;;;;;;0.50;0.50;;;13.50;99.90;;;;;;5053700;28;20082;-75
2023/05/26 08:15:34;;;;;;;0.20;0.20;;;13.70;99.90;;;;;;5069569;28;20041;-75
2023/05/26 08:17:59;;;;;;;0.30;0.30;;;13.70;99.90;;;;;;5068241;28;20039;-75
2023/05/26 08:20:25;;;;;;;0.20;0.20;;;13.80;99.90;;;;;;5050152;28;20040;-75
2023/05/26 08:22:51;;;;;;;0.30;0.30;;;13.80;99.90;;;;;;5065024;28;20354;-75
2023/05/26 08:25:16;;;;;;;0.47;0.47;;;14.00;99.90;;;;;;5101424;28;20044;-75
2023/05/26 08:27:42;;;;;;;0.20;0.20;;;14.10;99.90;;;;;;5069579;28;20052;-75
2023/05/26 08:30:08;;;;;;;2.63;0.40;;;14.20;99.90;;;;;;5070043;28;20052;-75
2023/05/26 08:32:34;;;;;;;;;;;14.30;99.90;;;;;;5069176;28;20513;-75
2023/05/26 08:35:00;;;;;;;2.92;1.75;;;14.30;99.90;;;;;;5070002;28;19920;-75
2023/05/26 08:37:26;;;;;;;;;;;14.20;99.90;;;;;;5070071;28;20056;-76
2023/05/26 08:39:51;;;;;;;0.52;0.52;;;14.10;99.90;;;;;;5053412;28;19939;-75
2023/05/26 08:42:21;;;;;;;;;;;14.10;99.90;;;;;;5057818;28;20055;-74
2023/05/26 08:44:46;;;;;;;0.40;0.40;;;13.90;99.90;;;;;;5078676;28;20522;-75
2023/05/26 08:47:13;;;;;;;0.55;0.55;;;13.90;99.90;;;;;;5069582;28;20049;-75
2023/05/26 08:49:45;;;;;;;0.30;0.30;;;13.80;99.90;;;;;;5066094;28;20109;-75
2023/05/26 08:52:13;;;;;;;0.20;0.20;;;13.80;99.90;;;;;;5069716;28;20097;-75
2023/05/26 08:54:42;;;;;;;0.28;0.28;;;13.90;99.90;;;;;;5070265;28;20041;-75
2023/05/26 08:57:10;;;;;;;0.30;0.30;;;14.00;99.90;;;;;;5069887;28;20051;-74
2023/05/26 08:59:37;;;;;;;0.30;0.30;;;14.20;99.90;;;;;;5069142;28;20040;-74
2023/05/26 09:02:03;;;;;;;0.40;0.40;;;14.20;99.90;;;;;;5069137;28;20098;-74
2023/05/26 09:04:30;;;;;;;;;;;14.30;99.90;;;;;;5069414;28;20075;-73
2023/05/26 09:06:56;;;;;;;0.38;0.38;;;14.30;99.90;;;;;;5069409;28;20358;-74
2023/05/26 09:09:23;;;;;;;0.35;0.35;;;14.40;99.90;;;;;;5069257;28;20393;-73
2023/05/26 09:11:49;;;;;;;0.28;0.28;;;14.60;99.90;;;;;;5068421;28;20079;-74
2023/05/26 09:14:17;;;;;;;0.30;0.30;;;14.80;99.90;;;;;;5052985;28;20079;-74
2023/05/26 09:16:43;;;;;;;0.20;0.20;;;15.00;99.90;;;;;;5068840;28;20048;-74
2023/05/26 09:19:18;;;;;;;0.75;0.60;;;15.20;99.90;;;;;;5085420;28;20040;-74
2023/05/26 09:21:54;;;;;;;1.02;0.70;;;15.40;99.90;;;;;;5105933;28;20048;-74
2023/05/26 09:24:23;;;;;;;0.20;0.20;;;15.50;99.90;;;;;;5089502;28;20306;-74
2023/05/26 09:26:49;;;;;;;1.58;1.48;;;15.50;99.90;;;;;;5036754;28;20048;-74
2023/05/26 09:29:16;;;;;;;0.30;0.30;;;15.40;99.90;;;;;;5053383;28;20511;-75
2023/05/26 09:31:47;;;;;;;3.10;0.60;;;15.50;99.90;;;;;;5068459;28;20054;-74
2023/05/26 09:34:14;;;;;;;0.43;0.25;;;15.40;99.90;;;;;;5069003;28;20071;-73
2023/05/26 09:36:41;;;;;;;1.13;1.10;;;15.10;99.90;;;;;;5051973;28;20087;-74
2023/05/26 09:39:09;;;;;;;0.20;0.20;;;14.90;99.90;;;;;;5068738;28;20544;-74
2023/05/26 09:41:42;;;;;;;0.20;0.20;;;14.50;99.90;;;;;;5068772;28;20083;-74
2023/05/26 09:44:16;;;;;;;0.38;0.38;;;14.40;99.90;;;;;;5082163;28;20374;-74
2023/05/26 09:46:44;;;;;;;0.40;0.40;;;14.80;99.90;;;;;;5071586;28;20055;-74
2023/05/26 09:49:17;;;;;;;0.20;0.20;;;14.90;99.90;;;;;;5069005;28;20095;-74
2023/05/26 09:51:48;;;;;;;1.00;0.93;;;15.00;99.90;;;;;;5052030;28;20462;-74
2023/05/26 09:54:15;;;;;;;1.67;0.28;;;15.00;99.90;;;;;;5068437;28;20136;-74
2023/05/26 09:56:54;;;;;;;0.63;0.63;;;15.00;99.90;;;;;;5051770;28;20513;-74
2023/05/26 09:59:21;;;;;;;0.30;0.30;;;14.70;99.90;;;;;;5068598;28;20441;-74
2023/05/26 10:01:48;;;;;;;0.20;0.20;;;14.60;99.90;;;;;;5068316;28;20397;-74
2023/05/26 10:04:15;;;;;;;0.32;0.32;;;14.50;99.90;;;;;;5068784;28;20044;-73
2023/05/26 10:06:43;;;;;;;0.55;0.40;;;14.40;99.90;;;;;;5067893;28;20052;-74
2023/05/26 10:09:09;;;;;;;4.05;1.40;;;14.30;99.90;;;;;;5068492;28;20072;-74
2023/05/26 10:11:45;;;;;;;1.98;0.63;;;14.30;99.90;;;;;;5056978;28;20057;-73
2023/05/26 10:14:12;;;;;;;0.30;0.30;;;14.50;99.90;;;;;;5061432;28;20562;-74
2023/05/26 10:16:41;;;;;;;2.65;1.35;;;14.90;99.90;;;;;;5105487;28;20047;-75
2023/05/26 10:19:07;;;;;;;0.20;0.20;;;15.10;99.90;;;;;;5088562;28;20404;-75
2023/05/26 10:21:39;;;;;;;0.35;0.35;;;15.30;99.90;;;;;;5088301;28;20131;-73
2023/05/26 10:24:41;;;;;;;0.82;0.82;;;15.50;99.90;;;;;;5071598;28;20131;-71
2023/05/26 10:27:19;;;;;;;1.48;1.38;;;15.90;99.90;;;;;;5047793;28;20056;-74
2023/05/26 10:30:08;;;;;;;0.20;0.20;;;16.10;99.90;;;;;;5048492;28;20049;-74
2023/05/26 10:32:53;;;;;;;1.10;1.10;;;16.00;99.30;;;;;;5048552;28;20234;-74
2023/05/26 10:35:24;;;;;;;0.65;0.35;;;16.00;99.10;;;;;;5066717;28;20090;-74
2023/05/26 10:38:03;;;;;;;0.50;0.50;;;16.00;99.90;;;;;;5051162;28;20068;-75
2023/05/26 10:40:29;;;;;;;0.75;0.75;;;16.40;98.70;;;;;;5068271;28;20063;-75
2023/05/26 10:42:58;;;;;;;;;;;16.70;98.40;;;;;;5077527;28;20044;-75
2023/05/26 10:45:24;;;;;;;0.30;0.30;;;16.90;99.70;;;;;;5071966;28;19966;-75
2023/05/26 10:47:50;;;;;;;0.10;0.10;;;16.70;99.10;;;;;;5051326;28;20044;-75
2023/05/26 10:50:15;;;;;;;0.40;0.40;;;16.80;99.40;;;;;;5051632;28;20048;-74
2023/05/26 10:52:48;;;;;;;;;;;16.80;97.80;;;;;;5051554;28;20040;-74
2023/05/26 10:55:30;;;;;;;1.35;0.82;;;16.90;98.50;;;;;;5048645;28;19920;-75
2023/05/26 10:58:42;;;;;;;0.50;0.50;;;16.50;97.70;;;;;;5051759;28;20045;-75
2023/05/26 11:01:16;;;;;;;0.20;0.20;;;16.10;98.80;;;;;;5051571;28;20445;-74
2023/05/26 11:04:04;;;;;;;0.20;0.20;;;15.90;99.50;;;;;;5051395;28;20387;-74
2023/05/26 11:06:52;;;;;;;0.60;0.60;;;15.90;99.50;;;;;;5054482;28;20507;-74
2023/05/26 11:09:22;;;;;;;0.10;0.10;;;16.20;99.90;;;;;;5088272;28;20032;-74
2023/05/26 11:11:59;;;;;;;0.28;0.28;;;16.40;99.60;;;;;;5088631;28;20055;-74
2023/05/26 11:14:29;;;;;;;0.75;0.75;;;16.30;98.70;;;;;;5082454;28;20044;-74
2023/05/26 11:17:01;;;;;;;0.20;0.20;;;16.20;98.60;;;;;;5071485;28;20036;-75
2023/05/26 11:19:34;;;;;;;0.28;0.28;;;16.00;98.70;;;;;;5072865;28;20040;-75
2023/05/26 11:22:05;;;;;;;1.42;0.43;;;16.20;99.50;;;;;;5054544;28;20048;-75
2023/05/26 11:24:32;;;;;;;0.80;0.47;;;16.30;99.00;;;;;;5071692;28;20045;-75
2023/05/26 11:27:03;;;;;;;0.30;0.30;;;16.20;99.10;;;;;;5071514;28;20052;-75
2023/05/26 11:29:29;;;;;;;0.20;0.20;;;16.10;98.90;;;;;;5055268;28;20518;-74
2023/05/26 11:31:55;;;;;;;0.10;0.10;;;16.10;99.40;;;;;;5054370;28;20409;-74
2023/05/26 11:34:22;;;;;;;0.52;0.30;;;16.50;98.90;;;;;;5054643;28;20053;-73
2023/05/26 11:36:58;;;;;;;0.38;0.38;;;16.70;98.70;;;;;;5054055;28;20098;-75
2023/05/26 11:39:24;;;;;;;0.40;0.40;;;16.70;98.60;;;;;;5070856;28;20467;-74
2023/05/26 11:41:49;;;;;;;;;;;16.40;99.10;;;;;;5054936;28;20040;-74
2023/05/26 11:44:16;;;;;;;0.30;0.30;;;16.20;98.60;;;;;;5091015;28;19919;-75
2023/05/26 11:46:43;;;;;;;0.35;0.30;;;16.30;99.10;;;;;;5091140;28;20051;-75
2023/05/26 11:49:13;;;;;;;0.20;0.20;;;16.20;99.30;;;;;;5061705;28;20045;-75
2023/05/26 11:51:48;;;;;;;0.65;0.65;;;16.10;98.90;;;;;;5077534;28;20032;-75
2023/05/26 11:54:15;;;;;;;0.20;0.20;;;16.30;99.00;;;;;;5078310;28;20443;-74
2023/05/26 11:56:43;;;;;;;0.30;0.30;;;16.50;99.30;;;;;;5070894;28;20036;-75
2023/05/26 11:59:08;;;;;;;0.30;0.30;;;16.70;99.30;;;;;;5070654;28;20044;-75
2023/05/26 12:01:35;;;;;;;0.80;0.77;;;16.60;98.60;;;;;;5070462;28;20055;-75
2023/05/26 12:04:04;;;;;;;0.20;0.20;;;16.20;97.50;;;;;;5070585;28;20052;-75
2023/05/26 12:06:31;;;;;;;0.20;0.20;;;15.90;97.60;;;;;;5074754;28;20397;-75
2023/05/26 12:09:09;;;;;;;0.22;0.22;;;15.90;98.30;;;;;;5073418;28;20430;-74
2023/05/26 12:11:37;;;;;;;0.43;0.43;;;16.50;97.90;;;;;;5090413;28;20048;-75
2023/05/26 12:14:11;;;;;;;0.25;0.25;;;16.90;97.10;;;;;;5107135;28;20555;-75
2023/05/26 12:16:41;;;;;;;0.55;0.55;;;17.10;97.40;;;;;;5073839;28;20072;-75
2023/05/26 12:19:10;;;;;;;2.70;1.42;;;17.60;96.60;;;;;;5090288;28;20043;-75
2023/05/26 12:21:48;;;;;;;0.40;0.40;;;17.70;96.90;;;;;;5073739;28;20035;-74
2023/05/26 12:24:28;;;;;;;0.30;0.30;;;17.50;96.00;;;;;;5090799;28;20489;-75
2023/05/26 12:26:54;;;;;;;0.70;0.70;;;17.30;95.80;;;;;;5071148;28;20048;-75
2023/05/26 12:29:19;;;;;;;;;;;17.20;96.90;;;;;;5070936;28;20079;-75
2023/05/26 12:31:50;;;;;;;0.20;0.20;;;17.10;97.10;;;;;;5070318;28;19920;-74
2023/05/26 12:34:21;;;;;;;0.30;0.30;;;17.00;97.00;;;;;;5037435;28;20070;-75
2023/05/26 12:36:48;;;;;;;0.43;0.43;;;17.40;96.40;;;;;;5070156;28;20123;-75
2023/05/26 12:39:15;;;;;;;0.30;0.30;;;17.30;95.70;;;;;;5069985;28;20063;-74
2023/05/26 12:41:41;;;;;;;0.20;0.20;;;17.40;96.10;;;;;;5071168;28;20127;-75
2023/05/26 12:44:08;;;;;;;0.20;0.20;;;17.50;97.00;;;;;;5084799;28;20051;-74
2023/05/26 12:46:34;;;;;;;0.30;0.30;;;17.60;97.30;;;;;;5070499;28;20098;-75
2023/05/26 12:49:00;;;;;;;8.20;0.88;;;17.40;97.50;;;;;;5069787;28;20082;-75
2023/05/26 12:51:26;;;;;;;;;;;17.20;97.80;;;;;;5075227;28;20075;-75
2023/05/26 12:53:52;;;;;;;1.45;0.40;;;17.10;98.20;;;;;;5080251;28;19920;-75
2023/05/26 12:56:18;;;;;;;1.33;1.23;;;17.10;97.90;;;;;;5052918;28;20044;-75
2023/05/26 12:58:44;;;;;;;0.35;0.35;;;17.30;98.60;;;;;;5069666;28;20052;-75
2023/05/26 13:01:11;;;;;;;0.20;0.20;;;17.50;99.00;;;;;;5068907;28;20052;-75